Adrian, Michigan
Current Conditions -  °F | °C
As of 5:53 PM on Thursday 20 Nov 2014 (Local Time) from KADG Reporting Station
Broken Clouds Broken Clouds  
Wind Chill: -12°   Ceiling: 4600
Heat Index: -6°   Visibility: 10mi
Dew Point: -11°   Wind: 10mph
Humidity: 68%   Direction: 290°WNW
Pressure: 30.05"   Gusts: NA
Location:  41.9°N, 84.04°W
Report Text: KADG 202253Z AUTO 29009KT 10SM SCT036 BKN046 M06/M11 A3005 RMK AO2 SNE03 SLP191 P0000 T10561106
Loading
Personal Weather Stations






























Interactive Weather Map New forecast layout! Learn more

10-Day Weather Forecast

Advertisements
Track Severe Weather on mobile